Time;durP1;ratioP1;P1;durP2;ratioP2;P2;SDS_P1;SDS_P2;PMS_P1;PMS_P2;Temp;Humidity;BMP_temperature;BMP_pressure;BME280_temperature;BME280_humidity;BME280_pressure;Samples;Min_cycle;Max_cycle;Signal;HPM_P1;HPM_P2
2023/09/28 00:13:23;;;;;;;39.10;28.20;;;11.90;99.90;;;;;;5761515;24;20214;-88
2023/09/28 00:53:18;;;;;;;42.80;29.33;;;11.50;99.90;;;;;;5826837;24;20359;-84
2023/09/28 01:14:11;;;;;;;37.57;26.53;;;11.40;99.90;;;;;;5882501;24;20167;-86
2023/09/28 02:10:05;;;;;;;45.83;30.83;;;11.00;99.90;;;;;;5635383;25;20686;-86
2023/09/28 02:45:36;;;;;;;48.63;30.83;;;10.80;99.90;;;;;;5859792;24;20189;-84
2023/09/28 02:49:56;;;;;;;45.33;30.80;;;10.80;99.90;;;;;;5789710;24;20415;-85
2023/09/28 03:10:53;;;;;;;39.77;28.83;;;10.50;99.90;;;;;;5878166;24;20183;-86
2023/09/28 03:36:07;;;;;;;46.23;31.47;;;10.60;99.90;;;;;;5970474;23;20197;-83
2023/09/28 03:56:23;;;;;;;48.80;33.07;;;10.40;99.90;;;;;;5747668;24;20198;-85
2023/09/28 05:22:35;;;;;;;50.00;35.70;;;11.20;99.90;;;;;;5938740;23;20167;-85
2023/09/28 05:52:56;;;;;;;49.67;35.63;;;12.20;99.90;;;;;;5807988;24;20325;-85
2023/09/28 06:17:58;;;;;;;38.37;29.93;;;13.40;99.90;;;;;;5761539;24;20352;-85
2023/09/28 06:43:43;;;;;;;33.77;24.40;;;14.80;99.90;;;;;;5787313;24;20465;-85
2023/09/28 07:39:20;;;;;;;22.93;18.00;;;17.40;99.90;;;;;;5495225;25;20712;-81
2023/09/28 07:59:49;;;;;;;20.17;16.40;;;17.90;99.90;;;;;;5554005;25;20831;-88
2023/09/28 08:34:58;;;;;;;21.27;15.20;;;18.80;99.90;;;;;;5605652;25;20283;-84
2023/09/28 09:31:24;;;;;;;14.90;11.52;;;20.50;90.30;;;;;;5625643;24;20180;-86
2023/09/28 10:01:38;;;;;;;12.43;9.68;;;21.40;84.70;;;;;;5835488;23;20733;-86
2023/09/28 10:22:11;;;;;;;12.23;9.52;;;22.00;81.50;;;;;;5681577;24;20209;-85
2023/09/28 11:07:13;;;;;;;10.98;7.45;;;23.20;74.40;;;;;;5578375;25;20685;-86
2023/09/28 12:08:06;;;;;;;8.80;5.90;;;24.30;62.50;;;;;;5665139;24;20667;-86
2023/09/28 13:04:37;;;;;;;8.73;7.43;;;25.10;61.70;;;;;;5812620;24;20354;-83
2023/09/28 13:30:06;;;;;;;8.60;7.70;;;25.60;61.90;;;;;;5979673;23;20259;-85
2023/09/28 13:34:25;;;;;;;9.10;7.55;;;25.50;61.90;;;;;;5883567;24;20712;-86
2023/09/28 13:50:10;;;;;;;9.23;7.80;;;25.60;62.10;;;;;;5851638;24;20311;-85
2023/09/28 14:15:46;;;;;;;8.93;7.50;;;24.60;62.90;;;;;;5905539;24;20211;-86
2023/09/28 14:20:07;;;;;;;9.60;7.43;;;24.60;62.90;;;;;;5904041;24;20443;-87
2023/09/28 14:41:00;;;;;;;10.90;7.70;;;24.30;62.80;;;;;;5856657;24;20522;-83
2023/09/28 15:11:01;;;;;;;13.70;7.40;;;23.60;63.30;;;;;;5787707;24;20676;-88
2023/09/28 15:26:39;;;;;;;11.75;7.40;;;23.30;63.30;;;;;;5743880;24;20188;-90
2023/09/28 15:56:50;;;;;;;10.13;8.15;;;21.60;80.50;;;;;;5806414;24;20664;-86
2023/09/28 16:57:57;;;;;;;14.90;9.73;;;17.80;99.90;;;;;;5845934;24;20177;-86
2023/09/28 17:38:29;;;;;;;18.57;12.83;;;16.60;99.90;;;;;;6039985;23;20168;-85
2023/09/28 18:03:31;;;;;;;17.90;14.57;;;16.00;99.90;;;;;;5975663;23;20187;-86
2023/09/28 18:23:40;;;;;;;25.70;19.57;;;15.70;99.90;;;;;;5729402;24;20519;-86
2023/09/28 18:49:20;;;;;;;18.53;15.23;;;15.50;99.90;;;;;;5785096;24;20165;-86
2023/09/28 19:19:37;;;;;;;27.33;20.80;;;15.10;99.90;;;;;;5861706;24;21004;-87
2023/09/28 19:49:45;;;;;;;21.73;17.73;;;14.70;99.90;;;;;;6008388;23;20328;-85
2023/09/28 20:05:33;;;;;;;23.93;19.00;;;14.50;99.90;;;;;;6177941;23;20294;-86
2023/09/28 20:41:00;;;;;;;24.90;18.60;;;14.10;99.90;;;;;;6033373;23;20201;-88
2023/09/28 21:16:05;;;;;;;27.50;22.60;;;13.70;99.90;;;;;;6104394;23;20199;31
2023/09/28 21:25:58;;;;;;;27.87;22.13;;;13.60;99.90;;;;;;6140946;23;20226;-85
2023/09/28 21:46:53;;;;;;;34.80;24.63;;;13.20;99.90;;;;;;5982035;23;20209;-86
2023/09/28 22:17:10;;;;;;;33.33;24.77;;;13.10;99.90;;;;;;6036511;23;20205;-85
2023/09/28 22:47:43;;;;;;;36.20;27.20;;;12.70;99.90;;;;;;5803366;24;20202;-85
2023/09/28 23:17:30;;;;;;;43.57;30.37;;;12.50;99.90;;;;;;5619319;25;20670;-86
